createdAt,value
2023-05-18T00:00:21.643Z,100069.66
2023-05-18T00:03:24.986Z,100079.38
2023-05-18T00:06:27.967Z,100072.19
2023-05-18T00:09:32.153Z,100073.06
2023-05-18T00:12:34.663Z,100079.62
2023-05-18T00:15:37.524Z,100079.81
2023-05-18T00:18:40.326Z,100080.91
2023-05-18T00:21:43.994Z,100078.97
2023-05-18T00:24:46.811Z,100086.44
2023-05-18T00:27:51.857Z,100089.31
2023-05-18T00:30:55.099Z,100092.50
2023-05-18T00:33:57.937Z,100091.47
2023-05-18T00:37:00.555Z,100086.84
2023-05-18T00:40:06.666Z,100083.16
2023-05-18T00:43:10.661Z,100086.31
2023-05-18T00:46:13.788Z,100080.81
2023-05-18T00:49:16.726Z,100083.34
2023-05-18T00:52:20.014Z,100083.06
2023-05-18T00:55:22.890Z,100082.06
2023-05-18T00:58:26.804Z,100080.53
2023-05-18T01:01:34.617Z,100082.41
2023-05-18T01:04:38.095Z,100089.56
2023-05-18T01:07:44.815Z,100085.44
2023-05-18T01:10:54.310Z,100090.72
2023-05-18T01:14:17.225Z,100092.56
2023-05-18T01:17:33.568Z,100099.91
2023-05-18T01:20:58.104Z,100099.25
2023-05-18T01:24:07.501Z,100106.91
2023-05-18T01:27:11.851Z,100101.75
2023-05-18T01:30:16.959Z,100097.41
2023-05-18T01:33:20.077Z,100105.25
2023-05-18T01:36:22.866Z,100112.41
2023-05-18T01:39:25.523Z,100113.59
2023-05-18T01:42:31.090Z,100112.59
2023-05-18T01:45:33.813Z,100108.75
2023-05-18T01:48:38.400Z,100117.09
2023-05-18T01:51:45.669Z,100118.78
2023-05-18T01:54:54.965Z,100110.94
2023-05-18T01:57:58.786Z,100118.41
2023-05-18T02:01:01.841Z,100121.59
2023-05-18T02:04:11.247Z,100126.28
2023-05-18T02:07:13.991Z,100119.94
2023-05-18T02:10:17.953Z,100126.59
2023-05-18T02:13:20.557Z,100130.59
2023-05-18T02:16:23.557Z,100133.91
2023-05-18T02:19:27.357Z,100142.94
2023-05-18T02:22:30.470Z,100141.91
2023-05-18T02:25:33.279Z,100151.09
2023-05-18T02:28:39.963Z,100147.56
2023-05-18T02:31:43.095Z,100149.91
2023-05-18T02:34:46.382Z,100146.06
2023-05-18T02:37:50.080Z,100143.75
2023-05-18T02:40:52.776Z,100142.91
2023-05-18T02:43:55.580Z,100147.25
2023-05-18T02:46:58.609Z,100146.06
2023-05-18T02:50:02.041Z,100150.69
2023-05-18T02:53:05.477Z,100146.03
2023-05-18T02:56:08.632Z,100153.34
2023-05-18T02:59:12.986Z,100156.91
2023-05-18T03:02:16.654Z,100150.19
2023-05-18T03:05:23.838Z,100148.56
2023-05-18T03:08:27.354Z,100150.19
2023-05-18T03:11:30.240Z,100150.34
2023-05-18T03:14:33.276Z,100146.84
2023-05-18T03:17:36.067Z,100149.03
2023-05-18T03:20:39.293Z,100157.72
2023-05-18T03:23:42.261Z,100150.88
2023-05-18T03:26:46.316Z,100162.25
2023-05-18T03:29:48.909Z,100159.41
2023-05-18T03:32:53.194Z,100159.03
2023-05-18T03:35:55.957Z,100160.50
2023-05-18T03:38:58.942Z,100171.06
2023-05-18T03:42:02.037Z,100165.53
2023-05-18T03:45:06.376Z,100175.56
2023-05-18T03:48:09.224Z,100178.84
2023-05-18T03:51:12.484Z,100182.66
2023-05-18T03:54:15.185Z,100175.34
2023-05-18T03:57:18.389Z,100181.84
2023-05-18T04:00:21.018Z,100178.81
2023-05-18T04:03:25.121Z,100178.34
2023-05-18T04:06:28.266Z,100181.34
2023-05-18T04:09:30.777Z,100182.31
2023-05-18T04:12:33.600Z,100184.69
2023-05-18T04:15:36.496Z,100192.00
2023-05-18T04:18:41.006Z,100200.00
2023-05-18T04:21:43.759Z,100192.81
2023-05-18T04:24:47.767Z,100198.81
2023-05-18T04:27:51.607Z,100205.63
2023-05-18T04:30:54.685Z,100212.44
2023-05-18T04:33:58.504Z,100203.59
2023-05-18T04:37:03.140Z,100216.59
2023-05-18T04:40:07.963Z,100216.91
2023-05-18T04:43:11.328Z,100212.97
2023-05-18T04:46:16.715Z,100217.47
2023-05-18T04:49:23.795Z,100218.12
2023-05-18T04:52:30.736Z,100222.59
2023-05-18T04:55:34.246Z,100214.28
2023-05-18T04:58:37.784Z,100215.12
2023-05-18T05:01:41.128Z,100218.12
2023-05-18T05:04:43.751Z,100213.78
2023-05-18T05:07:46.792Z,100222.44
2023-05-18T05:10:49.393Z,100224.78
2023-05-18T05:13:52.662Z,100222.09
2023-05-18T05:16:56.039Z,100230.41
2023-05-18T05:19:59.108Z,100233.94
2023-05-18T05:23:01.857Z,100229.78
2023-05-18T05:26:05.079Z,100231.94
2023-05-18T05:29:07.781Z,100234.94
2023-05-18T05:32:12.393Z,100238.13
2023-05-18T05:35:15.559Z,100237.47
2023-05-18T05:38:18.567Z,100241.97
2023-05-18T05:41:22.741Z,100249.47
2023-05-18T05:44:25.934Z,100255.19
2023-05-18T05:47:28.607Z,100249.12
2023-05-18T05:50:32.316Z,100246.78
2023-05-18T05:53:35.149Z,100257.53
2023-05-18T05:56:39.235Z,100251.72
2023-05-18T05:59:42.397Z,100256.12
2023-05-18T06:02:45.962Z,100260.47
2023-05-18T06:05:49.408Z,100258.84
2023-05-18T06:08:52.859Z,100260.38
2023-05-18T06:11:56.054Z,100260.91
2023-05-18T06:14:59.283Z,100261.37
2023-05-18T06:18:02.370Z,100263.34
2023-05-18T06:21:05.895Z,100269.62
2023-05-18T06:24:09.250Z,100267.47
2023-05-18T06:27:12.143Z,100279.19
2023-05-18T06:30:15.150Z,100278.28
2023-05-18T06:33:18.300Z,100281.53
2023-05-18T06:36:21.601Z,100285.28
2023-05-18T06:39:25.278Z,100282.19
2023-05-18T06:42:28.161Z,100291.78
2023-05-18T06:45:37.234Z,100294.50
2023-05-18T06:48:43.486Z,100295.84
2023-05-18T06:51:46.231Z,100310.53
2023-05-18T06:54:49.246Z,100302.50
2023-05-18T06:57:53.038Z,100309.75
2023-05-18T07:00:56.484Z,100309.66
2023-05-18T07:03:59.585Z,100309.34
2023-05-18T07:07:02.456Z,100308.13
2023-05-18T07:10:05.634Z,100309.50
2023-05-18T07:13:08.564Z,100317.38
2023-05-18T07:16:11.559Z,100314.56
2023-05-18T07:19:15.036Z,100322.56
2023-05-18T07:22:17.740Z,100322.19
2023-05-18T07:25:20.984Z,100324.69
2023-05-18T07:28:23.578Z,100333.06
2023-05-18T07:31:27.427Z,100335.06
2023-05-18T07:34:29.955Z,100343.59
2023-05-18T07:37:32.888Z,100334.44
2023-05-18T07:40:35.644Z,100343.25
2023-05-18T07:43:38.627Z,100341.78
2023-05-18T07:46:41.703Z,100352.25
2023-05-18T07:49:44.721Z,100341.56
2023-05-18T07:52:47.337Z,100351.78
2023-05-18T07:55:50.240Z,100342.00
2023-05-18T07:58:52.877Z,100354.97
2023-05-18T08:01:57.770Z,100344.50
2023-05-18T08:05:01.076Z,100347.31
2023-05-18T08:08:06.582Z,100354.69
2023-05-18T08:11:09.850Z,100358.31
2023-05-18T08:14:12.460Z,100354.69
2023-05-18T08:17:15.419Z,100356.72
2023-05-18T08:20:18.185Z,100364.06
2023-05-18T08:23:21.336Z,100356.22
2023-05-18T08:26:24.588Z,100364.78
2023-05-18T08:29:27.701Z,100361.47
2023-05-18T08:32:30.372Z,100361.81
2023-05-18T08:35:33.604Z,100365.13
2023-05-18T08:38:36.276Z,100361.12
2023-05-18T08:41:45.012Z,100366.66
2023-05-18T08:44:55.727Z,100362.47
2023-05-18T08:48:01.070Z,100369.66
2023-05-18T08:51:05.387Z,100369.34
2023-05-18T08:54:08.919Z,100375.34
2023-05-18T08:57:11.564Z,100367.53
2023-05-18T09:00:15.265Z,100368.22
2023-05-18T09:03:17.859Z,100365.87
2023-05-18T09:06:22.950Z,100369.53
2023-05-18T09:09:26.808Z,100358.84
2023-05-18T09:12:30.529Z,100366.53
2023-05-18T09:15:35.331Z,100362.22
2023-05-18T09:18:38.444Z,100364.38
2023-05-18T09:21:41.074Z,100368.53
2023-05-18T09:24:44.054Z,100362.03
2023-05-18T09:27:48.290Z,100363.84
2023-05-18T09:30:53.360Z,100362.84
2023-05-18T09:33:59.052Z,100363.31
2023-05-18T09:37:02.179Z,100365.34
2023-05-18T09:40:08.581Z,100365.47
2023-05-18T09:43:11.431Z,100367.66
2023-05-18T09:46:14.526Z,100373.16
2023-05-18T09:49:21.802Z,100371.47
2023-05-18T09:52:24.334Z,100379.00
2023-05-18T09:55:27.208Z,100378.69
2023-05-18T09:58:33.934Z,100378.50
2023-05-18T10:01:37.420Z,100378.47
2023-05-18T10:04:43.907Z,100387.66
2023-05-18T10:07:49.749Z,100385.81
2023-05-18T10:10:52.679Z,100377.66
2023-05-18T10:13:58.039Z,100368.19
2023-05-18T10:17:15.149Z,100379.91
2023-05-18T10:20:20.607Z,100371.66
2023-05-18T10:23:24.921Z,100368.31
2023-05-18T10:26:28.557Z,100377.03
2023-05-18T10:29:32.784Z,100378.06
2023-05-18T10:32:36.656Z,100368.84
2023-05-18T10:35:39.664Z,100375.84
2023-05-18T10:38:45.270Z,100382.56
2023-05-18T10:41:49.152Z,100377.22
2023-05-18T10:44:53.310Z,100384.53
2023-05-18T10:47:57.508Z,100380.84
2023-05-18T10:51:00.216Z,100384.72
2023-05-18T10:54:12.273Z,100384.75
2023-05-18T10:57:16.949Z,100386.75
2023-05-18T11:00:20.557Z,100381.75
2023-05-18T11:03:23.613Z,100385.06
2023-05-18T11:06:27.370Z,100385.72
2023-05-18T11:09:30.687Z,100383.59
2023-05-18T11:12:34.706Z,100389.13
2023-05-18T11:16:01.988Z,100381.75
2023-05-18T11:19:12.387Z,100389.44
2023-05-18T11:22:15.007Z,100392.28
2023-05-18T11:25:42.676Z,100389.44
2023-05-18T11:28:48.916Z,100392.44
2023-05-18T11:31:54.236Z,100394.25
2023-05-18T11:34:57.015Z,100400.44
2023-05-18T11:38:09.542Z,100393.53
2023-05-18T11:41:35.052Z,100398.91
2023-05-18T11:44:40.148Z,100400.78
2023-05-18T11:47:42.967Z,100406.63
2023-05-18T11:50:47.086Z,100405.44
2023-05-18T11:53:49.698Z,100400.75
2023-05-18T11:56:53.080Z,100402.59
2023-05-18T11:59:57.836Z,100401.09
2023-05-18T12:03:01.346Z,100404.50
2023-05-18T12:06:05.534Z,100411.50
2023-05-18T12:09:08.167Z,100405.78
2023-05-18T12:12:12.061Z,100409.34
2023-05-18T12:15:16.965Z,100414.69
2023-05-18T12:18:20.269Z,100411.78
2023-05-18T12:21:24.810Z,100404.91
2023-05-18T12:24:27.702Z,100409.75
2023-05-18T12:27:30.252Z,100412.63
2023-05-18T12:30:36.692Z,100413.41
2023-05-18T12:33:39.372Z,100410.78
2023-05-18T12:36:53.732Z,100415.09
2023-05-18T12:39:56.374Z,100405.56
2023-05-18T12:43:00.193Z,100408.06
2023-05-18T12:46:03.811Z,100405.75
2023-05-18T12:49:06.789Z,100409.38
2023-05-18T12:52:14.321Z,100399.31
2023-05-18T12:55:25.171Z,100408.84
2023-05-18T12:58:27.963Z,100402.34
2023-05-18T13:01:30.895Z,100406.28
2023-05-18T13:04:37.577Z,100405.28
2023-05-18T13:07:42.589Z,100404.69
2023-05-18T13:10:45.348Z,100407.19
2023-05-18T13:14:20.652Z,100403.69
2023-05-18T13:17:23.393Z,100399.28
2023-05-18T13:20:31.660Z,100405.47
2023-05-18T13:23:35.555Z,100401.22
2023-05-18T13:26:38.995Z,100401.16
2023-05-18T13:29:42.030Z,100402.28
2023-05-18T13:32:44.847Z,100403.59
2023-05-18T13:35:49.711Z,100398.88
2023-05-18T13:38:52.747Z,100414.50
2023-05-18T13:41:55.521Z,100409.84
2023-05-18T13:44:58.484Z,100407.63
2023-05-18T13:48:01.329Z,100409.97
2023-05-18T13:51:04.415Z,100417.00
2023-05-18T13:54:08.195Z,100409.69
2023-05-18T13:57:11.190Z,100418.44
2023-05-18T14:00:15.934Z,100420.28
2023-05-18T14:03:18.865Z,100429.94
2023-05-18T14:06:23.275Z,100423.25
2023-05-18T14:09:28.219Z,100426.41
2023-05-18T14:12:31.040Z,100418.50
2023-05-18T14:15:33.891Z,100424.81
2023-05-18T14:18:36.548Z,100417.97
2023-05-18T14:21:39.484Z,100429.75
2023-05-18T14:24:42.475Z,100431.41
2023-05-18T14:27:45.230Z,100430.22
2023-05-18T14:30:47.876Z,100429.06
2023-05-18T14:33:50.751Z,100424.75
2023-05-18T14:36:53.694Z,100419.94
2023-05-18T14:39:56.597Z,100423.25
2023-05-18T14:42:59.148Z,100433.91
2023-05-18T14:46:08.521Z,100437.03
2023-05-18T14:49:11.711Z,100433.44
2023-05-18T14:52:14.782Z,100424.09
2023-05-18T14:55:17.371Z,100435.47
2023-05-18T14:58:20.363Z,100434.75
2023-05-18T15:01:22.996Z,100440.63
2023-05-18T15:04:26.075Z,100439.59
2023-05-18T15:07:28.592Z,100438.56
2023-05-18T15:10:31.648Z,100438.38
2023-05-18T15:13:34.609Z,100438.22
2023-05-18T15:16:38.748Z,100443.16
2023-05-18T15:19:44.804Z,100444.75
2023-05-18T15:22:47.674Z,100447.97
2023-05-18T15:25:51.436Z,100449.88
2023-05-18T15:28:54.376Z,100451.41
2023-05-18T15:31:56.953Z,100449.78
2023-05-18T15:34:59.904Z,100452.72
2023-05-18T15:38:02.737Z,100442.19
2023-05-18T15:41:05.983Z,100448.44
2023-05-18T15:44:08.546Z,100443.72
2023-05-18T15:47:11.579Z,100446.06
2023-05-18T15:50:14.119Z,100454.81
2023-05-18T15:53:16.892Z,100454.81
2023-05-18T15:56:19.628Z,100458.50
2023-05-18T15:59:22.461Z,100454.81
2023-05-18T16:02:26.018Z,100464.06
2023-05-18T16:05:29.173Z,100455.03
2023-05-18T16:08:32.225Z,100457.87
2023-05-18T16:11:36.007Z,100462.19
2023-05-18T16:14:38.638Z,100461.75
2023-05-18T16:17:41.603Z,100462.94
2023-05-18T16:20:44.292Z,100464.94
2023-05-18T16:23:47.340Z,100459.56
2023-05-18T16:26:49.946Z,100469.34
2023-05-18T16:29:53.027Z,100469.16
2023-05-18T16:32:55.674Z,100465.66
2023-05-18T16:35:58.614Z,100470.47
2023-05-18T16:39:02.869Z,100470.47
2023-05-18T16:42:07.748Z,100465.31
2023-05-18T16:45:10.859Z,100473.34
2023-05-18T16:48:14.150Z,100472.97
2023-05-18T16:51:16.769Z,100467.19
2023-05-18T16:54:19.739Z,100475.72
2023-05-18T16:57:22.485Z,100470.38
2023-05-18T17:00:28.203Z,100470.87
2023-05-18T17:03:34.524Z,100469.38
2023-05-18T17:06:38.547Z,100474.87
2023-05-18T17:09:42.750Z,100472.22
2023-05-18T17:12:45.827Z,100473.75
2023-05-18T17:15:48.482Z,100468.38
2023-05-18T17:18:53.423Z,100474.09
2023-05-18T17:21:56.482Z,100483.44
2023-05-18T17:24:59.431Z,100486.09
2023-05-18T17:28:02.162Z,100489.78
2023-05-18T17:31:06.490Z,100487.47
2023-05-18T17:34:09.211Z,100491.16
2023-05-18T17:37:12.205Z,100489.31
2023-05-18T17:40:14.888Z,100489.97
2023-05-18T17:43:17.978Z,100484.31
2023-05-18T17:46:20.689Z,100484.50
2023-05-18T17:49:23.939Z,100480.28
2023-05-18T17:52:27.755Z,100493.53
2023-05-18T17:55:30.830Z,100487.00
2023-05-18T17:58:36.007Z,100476.78
2023-05-18T18:01:39.279Z,100468.94
2023-05-18T18:04:42.496Z,100483.66
2023-05-18T18:07:45.114Z,100503.22
2023-05-18T18:10:48.001Z,100507.25
2023-05-18T18:13:51.004Z,100494.19
2023-05-18T18:16:53.923Z,100497.03
2023-05-18T18:19:56.865Z,100503.75
2023-05-18T18:23:00.016Z,100507.91
2023-05-18T18:26:04.070Z,100513.75
2023-05-18T18:29:07.547Z,100506.22
2023-05-18T18:32:10.506Z,100508.56
2023-05-18T18:35:14.642Z,100512.06
2023-05-18T18:38:17.296Z,100513.41
2023-05-18T18:41:22.041Z,100522.59
2023-05-18T18:44:24.899Z,100520.09
2023-05-18T18:47:28.165Z,100526.13
2023-05-18T18:50:31.144Z,100527.97
2023-05-18T18:53:34.211Z,100519.44
2023-05-18T18:56:36.937Z,100526.44
2023-05-18T18:59:42.528Z,100522.94
2023-05-18T19:02:45.137Z,100531.31
2023-05-18T19:05:49.818Z,100538.78
2023-05-18T19:08:53.367Z,100544.97
2023-05-18T19:11:56.501Z,100543.47
2023-05-18T19:14:59.109Z,100551.31
2023-05-18T19:18:05.496Z,100549.66
2023-05-18T19:21:08.265Z,100554.34
2023-05-18T19:24:11.592Z,100561.34
2023-05-18T19:27:14.341Z,100557.84
2023-05-18T19:30:21.096Z,100561.69
2023-05-18T19:33:23.790Z,100561.19
2023-05-18T19:36:27.466Z,100573.88
2023-05-18T19:39:30.053Z,100567.88
2023-05-18T19:42:33.073Z,100575.72
2023-05-18T19:45:35.909Z,100572.87
2023-05-18T19:48:39.130Z,100576.41
2023-05-18T19:51:41.708Z,100586.94
2023-05-18T19:54:44.533Z,100588.09
2023-05-18T19:57:47.150Z,100581.91
2023-05-18T20:00:52.769Z,100600.63
2023-05-18T20:03:57.038Z,100602.31
2023-05-18T20:07:00.439Z,100605.63
2023-05-18T20:10:03.715Z,100610.81
2023-05-18T20:13:06.285Z,100608.16
2023-05-18T20:16:09.996Z,100617.16
2023-05-18T20:19:13.869Z,100615.50
2023-05-18T20:22:17.946Z,100622.34
2023-05-18T20:25:20.606Z,100622.34
2023-05-18T20:28:26.142Z,100622.56
2023-05-18T20:31:28.754Z,100625.91
2023-05-18T20:34:31.626Z,100620.56
2023-05-18T20:37:34.566Z,100619.06
2023-05-18T20:40:38.084Z,100618.22
2023-05-18T20:43:40.703Z,100614.88
2023-05-18T20:46:44.188Z,100618.06
2023-05-18T20:49:47.672Z,100618.91
2023-05-18T20:52:51.052Z,100624.94
2023-05-18T20:55:54.330Z,100624.25
2023-05-18T20:58:59.114Z,100625.25
2023-05-18T21:02:01.918Z,100617.91
2023-05-18T21:05:08.818Z,100626.09
2023-05-18T21:08:11.558Z,100618.22
2023-05-18T21:11:14.422Z,100624.56
2023-05-18T21:14:16.967Z,100632.94
2023-05-18T21:17:21.502Z,100623.41
2023-05-18T21:20:24.127Z,100633.09
2023-05-18T21:23:27.031Z,100640.63
2023-05-18T21:26:29.718Z,100638.41
2023-05-18T21:29:32.653Z,100643.28
2023-05-18T21:32:35.441Z,100645.28
2023-05-18T21:35:38.415Z,100640.06
2023-05-18T21:38:41.029Z,100644.75
2023-05-18T21:41:44.517Z,100639.91
2023-05-18T21:44:47.093Z,100643.56
2023-05-18T21:47:50.866Z,100639.22
2023-05-18T21:50:53.418Z,100651.59
2023-05-18T21:53:56.349Z,100642.41
2023-05-18T21:56:59.479Z,100648.91
2023-05-18T22:00:02.581Z,100647.41
2023-05-18T22:03:15.011Z,100645.19
2023-05-18T22:06:20.753Z,100655.38
2023-05-18T23:21:32.876Z,100641.25
2023-05-18T23:24:35.782Z,100647.03
2023-05-18T23:27:38.456Z,100643.53
2023-05-18T23:30:41.672Z,100654.16
2023-05-18T23:33:44.553Z,100650.97
2023-05-18T23:36:48.458Z,100661.66
2023-05-18T23:39:53.775Z,100651.81
2023-05-18T23:42:56.961Z,100659.97
2023-05-18T23:46:00.211Z,100662.50
2023-05-18T23:49:03.667Z,100661.81
2023-05-18T23:52:06.860Z,100658.31
2023-05-18T23:55:10.934Z,100656.16
2023-05-18T23:58:13.799Z,100650.81
